Frankford, Canada
Current Conditions -  °F | °C
As of 2:00 PM on Sunday 23 Nov 2014 (Local Time) from CYTR Reporting Station
Overcast Overcast  
Wind Chill: 42°   Ceiling: 4000
Heat Index: 46°   Visibility: 15mi
Dew Point: 41°   Wind: 8mph
Humidity: 81%   Direction: 220°SW
Pressure: 29.96"   Gusts: NA
Location:  44.2°N, 77.6°W
Report Text: CYTR 231900Z 22007KT 15SM FEW026 OVC040 08/05 A2996 RMK SC2SC6 SLP149
Loading
Personal Weather Stations






























Interactive Weather Map New forecast layout! Learn more

10-Day Weather Forecast

Advertisements
Track Severe Weather on mobile